createdAt,value
2023-06-07T00:01:51.497Z,101252.16
2023-06-07T00:04:18.139Z,101254.41
2023-06-07T00:06:45.205Z,101257.00
2023-06-07T00:09:11.654Z,101257.34
2023-06-07T00:11:38.124Z,101256.50
2023-06-07T00:14:04.593Z,101264.50
2023-06-07T00:16:31.048Z,101256.50
2023-06-07T00:18:58.789Z,101262.81
2023-06-07T00:21:25.398Z,101261.28
2023-06-07T00:23:51.848Z,101258.16
2023-06-07T00:26:18.301Z,101259.81
2023-06-07T00:28:48.846Z,101265.00
2023-06-07T00:31:15.580Z,101267.59
2023-06-07T00:33:42.050Z,101267.16
2023-06-07T00:36:08.548Z,101265.09
2023-06-07T00:38:35.866Z,101266.91
2023-06-07T00:41:02.452Z,101266.16
2023-06-07T00:43:28.892Z,101253.63
2023-06-07T00:45:55.352Z,101259.81
2023-06-07T00:48:22.424Z,101251.59
2023-06-07T00:50:48.974Z,101261.56
2023-06-07T00:53:15.475Z,101257.22
2023-06-07T00:55:41.875Z,101260.66
2023-06-07T00:58:08.870Z,101264.28
2023-06-07T01:00:38.464Z,101265.91
2023-06-07T01:03:05.167Z,101258.56
2023-06-07T01:05:31.822Z,101260.63
2023-06-07T01:07:58.314Z,101268.78
2023-06-07T01:10:24.869Z,101261.75
2023-06-07T01:12:55.184Z,101262.41
2023-06-07T01:15:21.749Z,101254.25
2023-06-07T01:17:49.113Z,101253.25
2023-06-07T01:20:15.626Z,101260.31
2023-06-07T01:22:43.543Z,101257.22
2023-06-07T01:25:10.654Z,101255.44
2023-06-07T01:27:38.200Z,101254.69
2023-06-07T01:30:04.889Z,101250.16
2023-06-07T01:32:31.641Z,101252.97
2023-06-07T01:34:58.114Z,101253.06
2023-06-07T01:37:24.591Z,101255.47
2023-06-07T01:39:52.863Z,101249.88
2023-06-07T01:42:19.286Z,101243.16
2023-06-07T01:44:45.763Z,101242.28
2023-06-07T01:47:13.865Z,101243.88
2023-06-07T01:49:41.047Z,101249.91
2023-06-07T01:52:07.497Z,101244.06
2023-06-07T01:54:33.951Z,101244.81
2023-06-07T01:57:00.341Z,101233.38
2023-06-07T01:59:28.757Z,101238.25
2023-06-07T02:01:55.263Z,101236.16
2023-06-07T02:04:21.824Z,101238.88
2023-06-07T02:06:48.278Z,101243.22
2023-06-07T02:09:15.304Z,101250.66
2023-06-07T02:11:41.726Z,101237.88
2023-06-07T02:14:08.162Z,101247.16
2023-06-07T02:16:36.514Z,101242.03
2023-06-07T02:19:07.848Z,101243.69
2023-06-07T02:21:45.254Z,101237.50
2023-06-07T02:24:12.210Z,101234.34
2023-06-07T02:26:38.785Z,101235.34
2023-06-07T02:29:05.861Z,101241.75
2023-06-07T02:31:32.376Z,101234.69
2023-06-07T02:33:58.835Z,101235.63
2023-06-07T02:36:34.734Z,101226.09
2023-06-07T02:39:03.631Z,101222.69
2023-06-07T02:41:30.038Z,101236.03
2023-06-07T02:43:56.457Z,101222.38
2023-06-07T02:46:23.280Z,101219.69
2023-06-07T02:48:49.877Z,101224.25
2023-06-07T02:51:17.166Z,101219.06
2023-06-07T02:53:45.512Z,101223.28
2023-06-07T02:56:13.355Z,101210.53
2023-06-07T02:58:39.787Z,101212.34
2023-06-07T03:01:08.783Z,101225.78
2023-06-07T03:03:40.451Z,101217.47
2023-06-07T03:06:10.932Z,101221.69
2023-06-07T03:08:39.097Z,101219.25
2023-06-07T03:11:06.655Z,101220.78
2023-06-07T03:13:37.326Z,101218.66
2023-06-07T03:16:08.356Z,101221.38
2023-06-07T03:18:44.030Z,101221.94
2023-06-07T03:21:10.496Z,101224.38
2023-06-07T03:23:37.640Z,101225.22
2023-06-07T03:26:04.794Z,101230.53
2023-06-07T03:28:33.746Z,101229.25
2023-06-07T03:31:00.842Z,101230.53
2023-06-07T03:33:37.670Z,101240.78
2023-06-07T03:36:08.223Z,101231.75
2023-06-07T03:38:37.092Z,101229.69
2023-06-07T03:41:04.302Z,101230.91
2023-06-07T03:43:36.186Z,101235.28
2023-06-07T03:46:03.165Z,101235.44
2023-06-07T03:48:30.946Z,101236.38
2023-06-07T03:50:59.671Z,101233.88
2023-06-07T03:53:26.291Z,101236.56
2023-06-07T03:55:53.879Z,101239.31
2023-06-07T03:58:24.312Z,101241.94
2023-06-07T04:00:50.890Z,101246.56
2023-06-07T04:03:17.665Z,101237.41
2023-06-07T04:05:44.405Z,101240.28
2023-06-07T04:08:12.547Z,101239.00
2023-06-07T04:10:39.012Z,101234.28
2023-06-07T04:13:05.544Z,101234.53
2023-06-07T04:15:34.590Z,101234.38
2023-06-07T04:18:01.045Z,101241.72
2023-06-07T04:20:28.508Z,101235.81
2023-06-07T04:22:55.529Z,101240.00
2023-06-07T04:25:25.357Z,101246.50
2023-06-07T04:27:52.359Z,101246.72
2023-06-07T04:30:19.383Z,101246.78
2023-06-07T04:32:48.060Z,101247.50
2023-06-07T04:35:15.668Z,101249.25
2023-06-07T04:37:46.828Z,101239.09
2023-06-07T04:40:15.745Z,101236.13
2023-06-07T04:42:47.722Z,101237.91
2023-06-07T04:45:14.523Z,101241.06
2023-06-07T04:47:46.208Z,101241.50
2023-06-07T04:50:14.910Z,101242.44
2023-06-07T04:52:42.543Z,101243.13
2023-06-07T04:55:09.458Z,101249.56
2023-06-07T04:57:36.782Z,101252.31
2023-06-07T05:00:07.412Z,101252.31
2023-06-07T05:02:45.447Z,101262.63
2023-06-07T05:05:17.387Z,101258.53
2023-06-07T05:07:45.597Z,101263.78
2023-06-07T05:10:12.857Z,101261.75
2023-06-07T05:12:39.483Z,101268.66
2023-06-07T05:15:08.408Z,101260.22
2023-06-07T05:17:37.497Z,101263.47
2023-06-07T05:20:09.667Z,101264.81
2023-06-07T05:22:36.103Z,101272.13
2023-06-07T05:25:02.641Z,101259.03
2023-06-07T05:27:29.631Z,101254.25
2023-06-07T05:29:56.093Z,101255.50
2023-06-07T05:32:22.896Z,101271.66
2023-06-07T05:34:50.240Z,101271.59
2023-06-07T05:37:16.774Z,101268.13
2023-06-07T05:39:47.122Z,101264.69
2023-06-07T05:42:13.757Z,101274.22
2023-06-07T05:44:41.376Z,101274.84
2023-06-07T05:47:08.100Z,101268.91
2023-06-07T05:49:34.627Z,101271.28
2023-06-07T05:52:01.128Z,101273.66
2023-06-07T05:54:27.681Z,101265.06
2023-06-07T05:56:54.475Z,101273.13
2023-06-07T05:59:20.970Z,101276.78
2023-06-07T06:01:47.604Z,101279.28
2023-06-07T06:04:14.145Z,101282.50
2023-06-07T06:06:41.009Z,101282.88
2023-06-07T06:09:07.602Z,101280.31
2023-06-07T06:11:34.120Z,101290.19
2023-06-07T06:14:00.610Z,101290.47
2023-06-07T06:16:27.015Z,101289.25
2023-06-07T06:18:53.626Z,101286.91
2023-06-07T06:21:20.108Z,101280.41
2023-06-07T06:23:46.801Z,101279.31
2023-06-07T06:26:13.593Z,101277.28
2023-06-07T06:28:40.094Z,101279.22
2023-06-07T06:31:06.800Z,101276.69
2023-06-07T06:33:33.424Z,101281.28
2023-06-07T06:36:00.926Z,101289.78
2023-06-07T06:38:27.642Z,101293.63
2023-06-07T06:40:54.065Z,101301.69
2023-06-07T06:43:20.535Z,101311.38
2023-06-07T06:45:51.265Z,101313.97
2023-06-07T06:48:17.791Z,101320.28
2023-06-07T06:50:47.836Z,101317.66
2023-06-07T06:53:14.292Z,101328.63
2023-06-07T06:55:41.129Z,101331.72
2023-06-07T06:58:07.786Z,101327.44
2023-06-07T07:00:36.868Z,101325.19
2023-06-07T07:03:03.692Z,101328.00
2023-06-07T07:05:30.845Z,101331.25
2023-06-07T07:07:57.576Z,101332.47
2023-06-07T07:10:24.025Z,101345.56
2023-06-07T07:12:50.668Z,101344.00
2023-06-07T07:15:17.191Z,101342.22
2023-06-07T07:17:43.732Z,101340.03
2023-06-07T07:20:11.772Z,101347.44
2023-06-07T07:22:38.210Z,101343.00
2023-06-07T07:25:04.716Z,101346.50
2023-06-07T07:27:31.150Z,101349.34
2023-06-07T07:29:57.709Z,101349.06
2023-06-07T07:32:24.246Z,101352.53
2023-06-07T07:34:50.777Z,101358.25
2023-06-07T07:37:17.453Z,101358.22
2023-06-07T07:39:43.905Z,101360.69
2023-06-07T07:42:10.405Z,101362.91
2023-06-07T07:44:38.161Z,101360.81
2023-06-07T07:47:04.612Z,101362.91
2023-06-07T07:49:31.159Z,101359.75
2023-06-07T07:51:57.723Z,101368.94
2023-06-07T07:54:24.277Z,101376.34
2023-06-07T07:56:50.766Z,101368.94
2023-06-07T07:59:17.366Z,101379.91
2023-06-07T08:01:43.870Z,101378.00
2023-06-07T08:04:10.533Z,101369.50
2023-06-07T08:06:37.012Z,101393.81
2023-06-07T08:09:03.545Z,101381.22
2023-06-07T08:11:29.971Z,101374.22
2023-06-07T08:13:56.836Z,101379.69
2023-06-07T08:16:23.492Z,101383.31
2023-06-07T08:18:50.716Z,101371.81
2023-06-07T08:21:17.237Z,101378.63
2023-06-07T08:23:46.229Z,101375.50
2023-06-07T08:26:12.828Z,101370.09
2023-06-07T08:28:39.317Z,101377.19
2023-06-07T08:31:06.095Z,101376.13
2023-06-07T08:33:32.546Z,101370.81
2023-06-07T08:35:58.990Z,101375.88
2023-06-07T08:38:26.905Z,101377.75
2023-06-07T08:40:53.321Z,101371.47
2023-06-07T08:43:19.727Z,101363.63
2023-06-07T08:45:46.367Z,101357.91
2023-06-07T08:48:12.977Z,101364.22
2023-06-07T08:50:39.466Z,101368.72
2023-06-07T08:53:06.248Z,101346.63
2023-06-07T08:55:32.685Z,101348.69
2023-06-07T08:57:59.095Z,101369.50
2023-06-07T09:00:25.579Z,101365.88
2023-06-07T09:02:53.819Z,101361.66
2023-06-07T09:05:20.499Z,101360.50
2023-06-07T09:07:47.035Z,101363.09
2023-06-07T09:10:14.453Z,101364.84
2023-06-07T09:12:41.622Z,101374.47
2023-06-07T09:15:08.065Z,101373.59
2023-06-07T09:17:34.586Z,101381.59
2023-06-07T09:20:01.220Z,101380.69
2023-06-07T09:22:27.684Z,101381.41
2023-06-07T09:24:54.200Z,101380.81
2023-06-07T09:27:20.838Z,101380.75
2023-06-07T09:29:47.250Z,101388.44
2023-06-07T09:32:13.828Z,101384.16
2023-06-07T09:34:40.562Z,101381.56
2023-06-07T09:37:07.195Z,101393.56
2023-06-07T09:39:34.254Z,101394.44
2023-06-07T09:42:00.728Z,101390.81
2023-06-07T09:44:27.561Z,101388.94
2023-06-07T09:46:54.081Z,101390.00
2023-06-07T09:49:20.701Z,101392.72
2023-06-07T09:51:47.189Z,101394.88
2023-06-07T09:54:14.107Z,101393.41
2023-06-07T09:56:40.904Z,101394.28
2023-06-07T09:59:07.867Z,101393.47
2023-06-07T10:01:34.725Z,101387.09
2023-06-07T10:04:01.576Z,101402.88
2023-06-07T10:06:28.256Z,101396.47
2023-06-07T10:08:54.982Z,101383.88
2023-06-07T10:11:21.539Z,101392.53
2023-06-07T10:13:47.964Z,101382.53
2023-06-07T10:16:14.440Z,101391.59
2023-06-07T10:18:40.925Z,101385.56
2023-06-07T10:21:07.342Z,101386.13
2023-06-07T10:23:34.031Z,101385.31
2023-06-07T10:26:00.617Z,101381.59
2023-06-07T10:28:29.191Z,101384.31
2023-06-07T10:30:55.715Z,101386.06
2023-06-07T10:33:22.182Z,101380.78
2023-06-07T10:35:48.678Z,101373.66
2023-06-07T10:38:15.254Z,101375.00
2023-06-07T10:40:42.152Z,101374.50
2023-06-07T10:43:08.604Z,101371.59
2023-06-07T10:45:35.038Z,101366.34
2023-06-07T10:48:01.595Z,101363.91
2023-06-07T10:50:28.271Z,101367.13
2023-06-07T10:52:54.771Z,101358.78
2023-06-07T10:55:21.257Z,101359.22
2023-06-07T10:57:47.831Z,101364.34
2023-06-07T11:00:16.162Z,101356.03
2023-06-07T11:02:43.647Z,101357.72
2023-06-07T11:05:11.374Z,101352.25
2023-06-07T11:07:42.527Z,101350.66
2023-06-07T11:10:09.315Z,101354.44
2023-06-07T11:12:36.095Z,101352.63
2023-06-07T11:15:02.621Z,101345.28
2023-06-07T11:17:29.199Z,101343.41
2023-06-07T11:19:56.438Z,101345.88
2023-06-07T11:22:22.975Z,101347.84
2023-06-07T11:24:49.409Z,101339.56
2023-06-07T11:27:16.046Z,101354.28
2023-06-07T11:29:44.350Z,101365.34
2023-06-07T11:32:11.594Z,101350.41
2023-06-07T11:34:38.354Z,101349.53
2023-06-07T11:37:04.770Z,101342.09
2023-06-07T11:39:31.206Z,101339.22
2023-06-07T11:41:57.636Z,101335.84
2023-06-07T11:44:24.077Z,101336.06
2023-06-07T11:46:51.311Z,101350.72
2023-06-07T11:49:17.786Z,101330.06
2023-06-07T11:51:44.548Z,101338.03
2023-06-07T11:54:11.123Z,101335.50
2023-06-07T11:56:38.755Z,101342.47
2023-06-07T11:59:05.753Z,101327.94
2023-06-07T12:01:33.085Z,101317.88
2023-06-07T12:03:59.632Z,101323.25
2023-06-07T12:06:26.113Z,101326.16
2023-06-07T12:08:52.645Z,101302.72
2023-06-07T12:11:22.416Z,101315.44
2023-06-07T12:13:49.999Z,101313.06
2023-06-07T12:16:17.040Z,101300.81
2023-06-07T12:18:43.662Z,101310.53
2023-06-07T12:21:10.255Z,101293.13
2023-06-07T12:23:37.291Z,101284.00
2023-06-07T12:26:03.759Z,101301.81
2023-06-07T12:28:30.257Z,101287.28
2023-06-07T12:30:56.805Z,101273.38
2023-06-07T12:33:23.398Z,101274.19
2023-06-07T12:35:50.024Z,101272.75
2023-06-07T12:38:16.682Z,101267.69
2023-06-07T12:40:43.162Z,101283.94
2023-06-07T12:43:09.736Z,101272.66
2023-06-07T12:45:36.257Z,101270.16
2023-06-07T12:48:02.790Z,101266.13
2023-06-07T12:50:30.256Z,101267.56
2023-06-07T12:52:56.694Z,101268.94
2023-06-07T12:55:23.212Z,101260.44
2023-06-07T12:57:49.633Z,101260.41
2023-06-07T13:00:16.281Z,101262.84
2023-06-07T13:02:45.673Z,101264.19
2023-06-07T13:05:12.279Z,101265.06
2023-06-07T13:07:39.394Z,101266.03
2023-06-07T13:10:06.031Z,101256.50
2023-06-07T13:12:32.639Z,101258.81
2023-06-07T13:14:59.141Z,101272.16
2023-06-07T13:17:26.000Z,101266.97
2023-06-07T13:19:52.738Z,101261.56
2023-06-07T13:22:19.246Z,101261.50
2023-06-07T13:24:45.662Z,101253.53
2023-06-07T13:27:12.328Z,101256.06
2023-06-07T13:29:39.447Z,101246.69
2023-06-07T13:32:05.885Z,101252.38
2023-06-07T13:34:32.322Z,101235.38
2023-06-07T13:36:58.852Z,101235.28
2023-06-07T13:39:25.733Z,101227.81
2023-06-07T13:41:52.274Z,101229.19
2023-06-07T13:44:19.463Z,101231.28
2023-06-07T13:46:46.245Z,101237.28
2023-06-07T13:49:13.595Z,101228.97
2023-06-07T13:51:40.162Z,101225.41
2023-06-07T13:54:06.611Z,101225.59
2023-06-07T13:56:33.164Z,101242.81
2023-06-07T13:59:00.350Z,101230.69
2023-06-07T14:01:28.374Z,101215.78
2023-06-07T14:03:55.134Z,101217.47
2023-06-07T14:06:23.657Z,101213.88
2023-06-07T14:08:50.065Z,101213.50
2023-06-07T14:11:16.625Z,101215.06
2023-06-07T14:13:44.353Z,101204.31
2023-06-07T14:16:11.823Z,101195.34
2023-06-07T14:18:38.271Z,101204.72
2023-06-07T14:21:04.740Z,101200.03
2023-06-07T14:23:31.217Z,101205.19
2023-06-07T14:25:57.949Z,101198.31
2023-06-07T14:28:24.889Z,101212.91
2023-06-07T14:30:51.800Z,101190.09
2023-06-07T14:33:18.360Z,101197.75
2023-06-07T14:35:44.948Z,101187.22
2023-06-07T14:38:12.653Z,101195.09
2023-06-07T14:40:39.066Z,101182.50
2023-06-07T14:43:05.489Z,101199.78
2023-06-07T14:45:32.014Z,101189.63
2023-06-07T14:47:58.644Z,101194.66
2023-06-07T14:50:25.214Z,101196.19
2023-06-07T14:52:51.646Z,101185.00
2023-06-07T14:55:18.070Z,101176.28
2023-06-07T14:57:45.022Z,101180.13
2023-06-07T15:00:11.548Z,101182.47
2023-06-07T15:02:38.133Z,101182.00
2023-06-07T15:05:04.716Z,101176.28
2023-06-07T15:07:31.472Z,101173.03
2023-06-07T15:09:57.945Z,101168.81
2023-06-07T15:12:24.433Z,101171.44
2023-06-07T15:14:50.938Z,101155.03
2023-06-07T15:17:17.647Z,101146.31
2023-06-07T15:19:44.148Z,101146.31
2023-06-07T15:22:11.315Z,101131.56
2023-06-07T15:24:38.132Z,101139.91
2023-06-07T15:27:06.961Z,101142.41
2023-06-07T15:29:33.564Z,101139.84
2023-06-07T15:32:00.091Z,101139.94
2023-06-07T15:34:30.156Z,101133.94
2023-06-07T15:36:56.654Z,101133.78
2023-06-07T15:39:23.117Z,101131.06
2023-06-07T15:41:49.532Z,101119.44
2023-06-07T15:44:16.101Z,101124.88
2023-06-07T15:46:42.556Z,101116.25
2023-06-07T15:49:09.011Z,101116.94
2023-06-07T15:51:35.407Z,101123.78
2023-06-07T15:54:01.853Z,101112.31
2023-06-07T15:56:29.206Z,101110.41
2023-06-07T15:58:55.754Z,101115.38
2023-06-07T16:01:22.201Z,101121.44
2023-06-07T16:03:56.523Z,101115.84
2023-06-07T16:06:23.827Z,101110.59
2023-06-07T16:08:50.295Z,101119.84
2023-06-07T16:11:16.773Z,101107.75
2023-06-07T16:13:43.269Z,101103.75
2023-06-07T16:16:09.786Z,101100.94
2023-06-07T16:18:37.864Z,101096.25
2023-06-07T16:21:04.315Z,101105.41
2023-06-07T16:23:31.209Z,101103.19
2023-06-07T16:25:57.735Z,101102.09
2023-06-07T16:28:24.504Z,101091.47
2023-06-07T16:30:51.049Z,101088.63
2023-06-07T16:33:17.578Z,101095.91
2023-06-07T16:35:45.589Z,101098.41
2023-06-07T16:38:12.218Z,101089.09
2023-06-07T16:40:38.695Z,101088.19
2023-06-07T16:43:05.158Z,101082.94
2023-06-07T16:45:31.580Z,101086.13
2023-06-07T16:47:59.194Z,101092.13
2023-06-07T16:50:25.965Z,101085.50
2023-06-07T16:52:52.424Z,101090.50
2023-06-07T16:55:19.027Z,101099.97
2023-06-07T16:57:45.490Z,101102.72
2023-06-07T17:00:11.973Z,101103.31
2023-06-07T17:02:38.442Z,101110.50
2023-06-07T17:05:04.894Z,101099.13
2023-06-07T17:07:31.338Z,101107.75
2023-06-07T17:09:57.958Z,101107.03
2023-06-07T17:12:24.488Z,101108.03
2023-06-07T17:14:50.945Z,101104.47
2023-06-07T17:17:17.461Z,101099.41
2023-06-07T17:19:44.365Z,101101.88
2023-06-07T17:22:10.826Z,101095.00
2023-06-07T17:24:37.273Z,101099.09
2023-06-07T17:27:06.543Z,101099.31
2023-06-07T17:29:33.034Z,101098.16
2023-06-07T17:31:59.620Z,101093.97
2023-06-07T17:34:26.103Z,101096.19
2023-06-07T17:36:53.316Z,101096.56
2023-06-07T17:39:22.333Z,101106.94
2023-06-07T17:41:48.779Z,101093.75
2023-06-07T17:44:15.428Z,101096.09
2023-06-07T17:46:42.056Z,101089.94
2023-06-07T17:49:08.545Z,101096.13
2023-06-07T17:51:35.198Z,101093.50
2023-06-07T17:54:02.020Z,101087.75
2023-06-07T17:56:29.098Z,101095.06
2023-06-07T17:58:55.629Z,101089.25
2023-06-07T18:01:23.411Z,101098.84
2023-06-07T18:03:53.388Z,101106.53
2023-06-07T18:06:19.882Z,101110.56
2023-06-07T18:08:46.423Z,101108.00
2023-06-07T18:11:12.907Z,101109.63
2023-06-07T18:13:39.340Z,101112.28
2023-06-07T18:16:05.933Z,101103.97
2023-06-07T18:18:35.004Z,101108.50
2023-06-07T18:21:01.530Z,101098.16
2023-06-07T18:23:28.319Z,101109.94
2023-06-07T18:25:54.916Z,101099.81
2023-06-07T18:28:21.395Z,101112.88
2023-06-07T18:30:48.060Z,101109.13
2023-06-07T18:33:14.625Z,101111.94
2023-06-07T18:35:41.401Z,101106.41
2023-06-07T18:38:07.980Z,101106.13
2023-06-07T18:40:34.397Z,101103.00
2023-06-07T18:43:01.126Z,101101.78
2023-06-07T18:45:27.724Z,101105.41
2023-06-07T18:47:55.221Z,101089.75
2023-06-07T18:50:21.815Z,101095.50
2023-06-07T18:52:48.216Z,101097.72
2023-06-07T18:55:15.069Z,101099.00
2023-06-07T18:57:41.640Z,101100.19
2023-06-07T19:00:08.197Z,101104.25
2023-06-07T19:02:34.746Z,101099.94
2023-06-07T19:05:01.445Z,101109.81
2023-06-07T19:07:28.661Z,101102.47
2023-06-07T19:09:55.085Z,101105.06
2023-06-07T19:12:21.546Z,101109.06
2023-06-07T19:14:48.123Z,101099.81
2023-06-07T19:17:15.131Z,101103.94
2023-06-07T19:19:41.612Z,101103.25
2023-06-07T19:22:10.971Z,101104.09
2023-06-07T19:24:43.657Z,101100.66
2023-06-07T19:27:10.272Z,101098.94
2023-06-07T19:29:41.630Z,101098.50
2023-06-07T19:32:08.597Z,101095.63
2023-06-07T19:34:36.172Z,101104.16
2023-06-07T19:37:02.797Z,101103.56
2023-06-07T19:39:29.664Z,101107.03
2023-06-07T19:41:56.104Z,101108.38
2023-06-07T19:44:22.520Z,101103.84
2023-06-07T19:46:49.235Z,101111.47
2023-06-07T19:49:15.757Z,101114.56
2023-06-07T19:51:42.344Z,101116.63
2023-06-07T19:54:08.783Z,101111.38
2023-06-07T19:56:35.273Z,101112.66
2023-06-07T19:59:02.155Z,101120.91
2023-06-07T20:01:31.334Z,101115.84
2023-06-07T20:03:57.898Z,101126.16
2023-06-07T20:06:27.332Z,101129.44
2023-06-07T20:08:53.817Z,101125.69
2023-06-07T20:11:20.541Z,101126.34
2023-06-07T20:13:46.923Z,101121.81
2023-06-07T20:16:13.411Z,101133.03
2023-06-07T20:18:40.030Z,101126.81
2023-06-07T20:21:06.563Z,101129.50
2023-06-07T20:23:33.179Z,101116.72
2023-06-07T20:25:59.716Z,101123.38
2023-06-07T20:28:26.196Z,101122.22
2023-06-07T20:30:52.730Z,101127.59
2023-06-07T20:33:19.202Z,101126.69
2023-06-07T20:35:46.929Z,101132.22
2023-06-07T20:38:13.930Z,101132.19
2023-06-07T20:40:40.949Z,101122.53
2023-06-07T20:43:07.739Z,101118.13
2023-06-07T20:45:34.259Z,101128.16
2023-06-07T20:48:01.804Z,101119.47
2023-06-07T20:50:28.497Z,101119.56
2023-06-07T20:52:55.018Z,101120.38
2023-06-07T20:55:21.578Z,101126.81
2023-06-07T20:57:48.710Z,101120.66
2023-06-07T21:00:15.200Z,101126.81
2023-06-07T21:02:41.828Z,101129.13
2023-06-07T21:05:08.568Z,101121.69
2023-06-07T21:07:35.957Z,101129.53
2023-06-07T21:10:06.653Z,101133.97
2023-06-07T21:12:34.076Z,101131.66
2023-06-07T21:15:01.224Z,101128.88
2023-06-07T21:17:29.248Z,101128.06
2023-06-07T21:19:58.593Z,101121.25
2023-06-07T21:22:28.408Z,101122.59
2023-06-07T21:24:55.111Z,101122.94
2023-06-07T21:27:21.546Z,101123.25
2023-06-07T21:29:50.691Z,101131.88
2023-06-07T21:32:17.553Z,101133.16
2023-06-07T21:34:44.228Z,101130.78
2023-06-07T21:37:11.450Z,101128.75
2023-06-07T21:39:38.863Z,101133.84
2023-06-07T21:42:05.781Z,101134.72
2023-06-07T21:44:32.478Z,101127.72
2023-06-07T21:46:59.672Z,101126.94
2023-06-07T21:49:29.622Z,101125.75
2023-06-07T21:51:58.464Z,101130.88
2023-06-07T21:54:24.915Z,101126.78
2023-06-07T21:56:51.292Z,101121.63
2023-06-07T21:59:17.779Z,101123.84
2023-06-07T22:01:44.605Z,101128.75
2023-06-07T22:04:11.280Z,101127.81
2023-06-07T22:06:38.074Z,101121.69
2023-06-07T22:09:06.274Z,101124.00
2023-06-07T22:11:33.766Z,101119.75
2023-06-07T22:14:01.660Z,101122.94
2023-06-07T22:16:31.928Z,101116.66
2023-06-07T22:19:01.902Z,101122.50
2023-06-07T22:21:31.306Z,101110.69
2023-06-07T22:23:58.978Z,101119.75
2023-06-07T22:26:30.582Z,101120.03
2023-06-07T22:29:03.821Z,101125.16
2023-06-07T22:31:33.010Z,101117.72
2023-06-07T22:34:04.187Z,101121.66
2023-06-07T22:36:39.020Z,101123.66
2023-06-07T22:39:06.570Z,101113.00
2023-06-07T22:41:33.010Z,101121.84
2023-06-07T22:44:01.557Z,101119.38
2023-06-07T22:46:28.181Z,101120.72
2023-06-07T22:48:56.803Z,101125.13
2023-06-07T22:51:23.230Z,101118.59
2023-06-07T22:53:50.059Z,101113.22
2023-06-07T22:56:16.598Z,101115.97
2023-06-07T22:58:43.063Z,101105.31
2023-06-07T23:01:09.782Z,101107.81
2023-06-07T23:03:36.763Z,101103.28
2023-06-07T23:06:03.234Z,101107.31
2023-06-07T23:08:29.733Z,101116.72
2023-06-07T23:10:56.340Z,101105.47
2023-06-07T23:13:23.062Z,101106.19
2023-06-07T23:15:49.447Z,101105.41
2023-06-07T23:18:16.441Z,101110.84
2023-06-07T23:20:42.924Z,101100.84
2023-06-07T23:23:10.781Z,101109.81
2023-06-07T23:25:37.458Z,101104.19
2023-06-07T23:28:04.053Z,101096.47
2023-06-07T23:30:31.086Z,101103.41
2023-06-07T23:32:57.503Z,101099.66
2023-06-07T23:35:23.955Z,101092.63
2023-06-07T23:37:50.368Z,101092.38
2023-06-07T23:40:16.991Z,101093.63
2023-06-07T23:42:43.531Z,101096.50
2023-06-07T23:45:09.947Z,101101.97
2023-06-07T23:47:39.554Z,101102.25
2023-06-07T23:50:09.396Z,101099.09
2023-06-07T23:52:36.196Z,101096.94
2023-06-07T23:55:02.663Z,101099.34
2023-06-07T23:57:29.062Z,101093.16
2023-06-07T23:59:56.323Z,101091.03
